Tiempo atmosférico en la estación meteorológica de Cabo Busto, Asturias (63 m.)



Fecha
DESCASC
Temp. máxima en grados centígrados (hora)
DESCASC
Temp. mínima en grados centígrados (hora)
DESCASC
Temp. media en grados centígrados
DESCASC
Racha de viento máxima en m/sg (hora)
DESCASC
Velocidad máxima media en intervalos de 10 minutos(hora)
DESCASC
Precipitaciones diarias en mm
DESCASC
Precipitaciones de 00:00 a 06:00 en mm
DESCASC
Precipitaciones de 06:00 a 12:00 en mm
DESCASC
Precipitaciones de 12:00 a 18:00 en mm
DESCASC
Precipitaciones de 18:00 a 24:00 en mm
DESCASC
22-04-2019 16.8 (17:30) 8.6 (08:20) 12.7 -- (--) -- (--) 3.2 0 0 0 3.2
21-04-2019 18.3 (15:10) 8.3 (08:00) 13.3 7.5 (21:10) 5 (13:20) 0 0 0 0 0
20-04-2019 16.8 (17:10) 8.6 (07:20) 12.7 5.83 (05:40) 4.17 (05:10) 0 0 0 0 0
19-04-2019 16.2 (17:30) 12.4 (00:10) 14.3 10.83 (10:40) 6.39 (11:40) 1.6 1.4 0.2 0 0
18-04-2019 16.3 (14:10) 10.8 (00:00) 13.5 11.67 (17:00) 6.39 (01:00) 1.6 0.8 0 0 0.8
17-04-2019 18.4 (16:30) 11.4 (00:00) 14.9 6.94 (07:00) 5.28 (09:30) 0.4 0 0 0 0.4
16-04-2019 15.5 (12:40) 7.8 (00:00) 11.7 -- (--) -- (--) 0 0 0 0 0
15-04-2019 19.4 (12:50) 10.7 (00:00) 15 21.39 (17:30) 14.17 (17:40) 5.2 0 4 0.8 0.4
14-04-2019 20.6 (16:10) 13.7 (00:00) 17.2 11.39 (18:20) 7.5 (17:40) 0 0 0 0 0
13-04-2019 16.7 (17:10) 8.8 (00:00) 12.8 -- (--) -- (--) 0 0 0 0 0
12-04-2019 13.8 (13:00) 6.6 (00:00) 10.2 -- (--) -- (--) 0 0 0 0 0
11-04-2019 16.4 (14:20) 7.6 (00:00) 12 -- (--) -- (--) 0 0 0 0 0
10-04-2019 15 (15:00) 9.7 (00:00) 12.3 -- (--) -- (--) 6.2 5.4 0.8 0 0
09-04-2019 16.6 (16:20) 9.8 (00:00) 13.2 21.67 (17:50) 13.89 (15:50) 0.6 0 0 0 0.6
08-04-2019 18.2 (15:40) 10.1 (00:00) 14.2 17.78 (18:00) 12.5 (18:00) 3 2.8 0 0.2 0
07-04-2019 17.9 (14:20) 8.5 (00:00) 13.2 16.67 (05:50) 11.39 (00:10) 2.2 0 0 0 2.2
06-04-2019 11.4 (17:40) 8.1 (00:00) 9.8 19.17 (18:10) 14.17 (18:10) 15.2 0 0.2 1.6 13.4
05-04-2019 13.9 (14:00) 7.4 (00:00) 10.6 22.5 (18:00) 13.06 (16:10) 1.8 1.6 0 0 0.2
04-04-2019 13.2 (14:20) 5.7 (00:00) 9.4 -- (--) -- (--) 4.4 4.4 0 0 0
03-04-2019 12.2 (16:10) 6.3 (00:00) 9.3 -- (--) -- (--) 10.8 2.6 2.2 0.4 5.6
02-04-2019 14.4 (13:40) 10 (00:00) 12.2 13.89 (19:20) 10.83 (19:30) 0.2 0 0 0 0.2
01-04-2019 16.6 (13:00) 7 (00:00) 11.8 -- (--) -- (--) 0 0 0 0 0
31-03-2019 15 (18:40) 9.2 (00:00) 12.1 -- (--) -- (--) 0 0 0 0 0
30-03-2019 12.4 (16:00) 6.7 (00:00) 9.5 -- (--) -- (--) 0 0 0 0 0
29-03-2019 14 (11:50) 6.5 (00:00) 10.3 8.89 (16:40) 5 (16:00) 0 0 0 0 0
28-03-2019 13.7 (13:40) 8 (00:00) 10.8 18.33 (16:00) 10.56 (17:30) 0 0 0 0 0
27-03-2019 13.2 (12:00) 8.7 (00:00) 10.9 19.72 (15:40) 11.39 (13:20) 0 0 0 0 0
26-03-2019 12.3 (11:40) 10 (00:00) 11.2 24.44 (12:50) 14.72 (16:00) 0 0 0 0 0
25-03-2019 13.6 (13:50) 10.8 (00:00) 12.2 21.67 (14:40) 11.39 (14:20) 0 0 0 0 0

Gráficas

Temp. máximas Temp. mínimas Temp. medias Precipitaciones Rachas de viento máximas Velocidades máximas media en intervalos de 10 minutos

Datos horarios

Fecha y hora oficial Temperatura (ºC) Velocidad del viento (km/h) Dirección del viento Racha (km/h) Dirección de racha Precipitación (mm) Presión (hPa) Tendencia (hPa) Humedad (%)
2019-04-23 23:00:00 11.2 22 Oeste 35 Oeste 0 990.5 1.8 61
2019-04-23 22:00:00 11.6 13 Oeste 26 Oeste 0 990.2 1.7 61
2019-04-23 21:00:00 12.1 18 Oeste 51 Oeste 0 989.6 1.6 59
2019-04-23 20:00:00 13.3 35 Oeste 50 Oeste 0 988.7 1.5 53
2019-04-23 19:00:00 13.4 29 Oeste 55 Oeste 0 988.5 1.6 56
2019-04-23 18:00:00 12.3 33 Oeste 68 Oeste 0 988 1.7 58
2019-04-23 17:00:00 12 51 Oeste 74 Oeste 0 987.2 1 60
2019-04-23 16:00:00 12.1 41 Oeste 55 Oeste 1.2 986.9 0.5 62
2019-04-23 15:00:00 13.6 13 Nordeste 25 Nordeste 0 986.3 0 63
2019-04-23 14:00:00 13.2 13 Este 27 Nordeste 0 986.2 0.2 66
2019-04-23 13:00:00 12.7 15 Este 28 Este 0 986.4 0.5 67
2019-04-23 12:00:00 13.9 10 Nordeste 23 Nordeste 0 986.3 0.4 63
2019-04-23 11:00:00 12.2 7 Nordeste 15 Nordeste 0 986 0.5 68
2019-04-23 10:00:00 11.8 4 Oeste 23 Oeste 0 985.9 0.9 68
2019-04-23 09:00:00 10.9 6 Sudoeste 28 Oeste 0 985.9 0.7 75
2019-04-23 08:00:00 10.1 8 Sur -- -- 0 985.5 0.1 84
2019-04-23 07:00:00 10.5 8 Sur 13 Oeste 0.2 985 -0.5 83
2019-04-23 06:00:00 10.6 10 Sur -- -- 0.4 985.2 -0.8 82
2019-04-23 05:00:00 11 9 Sudeste 36 Sudoeste 0 985.4 -1.2 80
2019-04-23 04:00:00 11.7 29 Oeste 44 Oeste 0.2 985.5 -1.4 79
2019-04-23 03:00:00 11.9 26 Oeste 39 Oeste 0 986 -1 84
2019-04-23 02:00:00 13 6 Sudoeste 9 Oeste 0.8 986.6 -0.6 86
2019-04-23 01:00:00 13.1 5 Sur 9 Sur 0.6 986.9 -0.3 85
2019-04-23 00:00:00 13.1 4 Sudeste 13 Este 0.2 987 -0.5 84
2019-04-22 23:00:00 13.4 4 Sur 21 Sudeste 0.2 987.2 0.1 82
2019-04-22 22:00:00 13 12 Sudeste 21 Sudeste 1.4 987.2 -0.4 83
2019-04-22 21:00:00 13.8 16 Sudoeste 40 Sudoeste 1.4 987.5 -0.5 76
2019-04-22 20:00:00 15.6 6 Este 8 Este 0 987.1 -0.9 71
2019-04-22 19:00:00 16.4 3 Este 8 Nordeste 0 987.6 -1.4 67
2019-04-22 18:00:00 16.3 5 Nordeste 19 Nordeste 0 988 -1.7 70
2019-04-22 17:00:00 16.5 16 Este 23 Este 0 988 -3 66
2019-04-22 16:00:00 16.4 13 Este 21 Este 0 989 -3.1 75
2019-04-22 15:00:00 15.9 15 Este -- -- 0 989.7 -3.6 77
2019-04-22 14:00:00 15 16 Este 23 Este 0 991 -3.2 71
2019-04-22 13:00:00 14.7 14 Este 18 Este 0 992.1 -3.1 69
2019-04-22 12:00:00 14.3 8 Nordeste 15 Este 0 993.3 -2.7 72
2019-04-22 11:00:00 14.4 6 Nordeste -- -- 0 994.2 -2.2 71
2019-04-22 10:00:00 12.3 7 Sudeste 15 Sur 0 995.2 -1.3 77
2019-04-22 09:00:00 9.5 12 Sur 16 Sur 0 996 -1.3 81
2019-04-22 08:00:00 8.8 12 Sur -- -- 0 996.4 -2.1 81
2019-04-22 07:00:00 8.9 -- -- -- -- 0 996.5 -3 81
2019-04-22 06:00:00 9.4 16 Sudeste 23 Sudeste 0 997.3 -3.3 79
2019-04-22 05:00:00 9.6 17 Sudeste 22 Sudeste 0 998.5 -3.3 80
2019-04-22 04:00:00 10.3 13 Sudeste 19 Sudeste 0 999.5 -3 80
2019-04-22 03:00:00 10 14 Sudeste 18 Sudeste 0 1000.6 -2.8 84
2019-04-22 02:00:00 10.8 8 Este 13 Sudeste 0 1001.8 -2.3 85
2019-04-22 01:00:00 10.7 9 Sudeste 15 Este 0 1002.5 -1.7 88
2019-04-22 00:00:00 11.8 10 Este 16 Este 0 1003.4 -0.8 89
2019-04-21 23:00:00 11.7 6 Sudeste 21 Este 0 1004.1 -0.2 89
2019-04-21 22:00:00 12.8 13 Este 27 Este 0 1004.2 -0.5 89
2019-04-21 21:00:00 12.7 15 Nordeste 27 Nordeste 0 1004.2 -0.9 87
2019-04-21 20:00:00 13.4 9 Nordeste 19 Nordeste 0 1004.3 -1.5 84
2019-04-21 19:00:00 14.1 10 Nordeste 20 Este 0 1004.7 -1.8 82
2019-04-21 18:00:00 15.4 7 Nordeste 17 Nordeste 0 1005.1 -2.1 78
2019-04-21 17:00:00 16.3 7 Nordeste 13 Noroeste 0 1005.8 -2.5 76
2019-04-21 16:00:00 17.2 8 Oeste 16 Oeste 0 1006.5 -2.2 75
2019-04-21 15:00:00 17.8 10 Oeste 15 Oeste 0 1007.2 -2.4 76
2019-04-21 14:00:00 15.6 10 Oeste 22 Noroeste 0 1008.3 -1.1 80
2019-04-21 13:00:00 16.8 13 Oeste 21 Oeste 0 1008.7 -1.1 78
2019-04-21 12:00:00 14.7 8 Oeste 24 Oeste 0 1009.6 -0.4 79
2019-04-21 11:00:00 15.1 12 Oeste 23 Oeste 0 1009.4 -0.8 80
2019-04-21 10:00:00 12.8 14 Oeste 20 Oeste 0 1009.8 -0.7 84
2019-04-21 09:00:00 9.9 10 Sudoeste 19 Sur 0 1010 -0.7 87
2019-04-21 08:00:00 8.3 13 Sur 18 Sur 0 1010.2 -0.9 87
2019-04-21 07:00:00 9.1 13 Sur 18 Sur 0 1010.5 -0.9 87
2019-04-21 06:00:00 10.2 8 Sur 15 Sur 0 1010.7 -1.2 88
2019-04-21 05:00:00 9.9 10 Sur 19 Sur 0 1011.1 -1.6 88
2019-04-21 04:00:00 10 14 Sur 17 Sur 0 1011.4 -1.8 88
2019-04-21 03:00:00 11.2 13 Sur 17 Sudeste 0 1011.9 -1.7 88
2019-04-21 02:00:00 11.8 13 Sur 15 Sur 0 1012.7 -1 87
2019-04-21 01:00:00 12 9 Sur 11 Sudeste 0 1013.2 -0.2 86
2019-04-21 00:00:00 13.6 5 Sudoeste 7 Oeste 0 1013.6 0.5 86
2019-04-20 23:00:00 12.8 3 Sudoeste 8 Noroeste 0 1013.7 0.6 86
2019-04-20 22:00:00 14.1 5 Noroeste 9 Noroeste 0 1013.4 0.2 84
2019-04-20 21:00:00 15.2 4 Oeste 8 Oeste 0 1013.1 -0.4 80
2019-04-20 20:00:00 16.4 5 Oeste 9 Oeste 0 1013.1 -0.8 79
2019-04-20 19:00:00 15.9 2 Nordeste 10 Noroeste 0 1013.2 -1.2 79
2019-04-20 18:00:00 16.3 3 Nordeste 10 Nordeste 0 1013.5 -1.2 77
2019-04-20 17:00:00 16.5 7 Nordeste 15 Nordeste 0 1013.9 -1.2 75
2019-04-20 16:00:00 16 5 Nordeste 11 Nordeste 0 1014.4 -1.2 79
2019-04-20 15:00:00 15.9 3 Nordeste 12 Nordeste 0 1014.7 -1.6 79
2019-04-20 14:00:00 15.7 6 Nordeste 13 Nordeste 0 1015.1 -1.3 77
2019-04-20 13:00:00 15.4 4 Norte 9 Norte 0 1015.6 -0.9 78
2019-04-20 12:00:00 14.8 5 Norte 10 Norte 0 1016.3 -0.3 79
2019-04-20 11:00:00 13.5 8 Norte 14 Sur 0 1016.4 0 80
2019-04-20 10:00:00 12.7 8 Sur 12 Sur 0 1016.5 0.6 83
2019-04-20 09:00:00 9.9 9 Sudeste 15 Sudeste 0 1016.6 1 86
2019-04-20 08:00:00 9 8 Sudeste 14 Sudeste 0 1016.4 0.6 86
2019-04-20 07:00:00 9.1 13 Sudeste 19 Sudeste 0 1015.9 -0.4 83
2019-04-20 06:00:00 10.1 13 Sudeste 21 Sudeste 0 1015.6 -1.1 82
2019-04-20 05:00:00 9.4 15 Sudeste 19 Sudeste 0 1015.8 -0.8 86
2019-04-20 04:00:00 10.7 10 Sudeste 13 Sudeste 0 1016.3 -0.3 85
2019-04-20 03:00:00 11.8 4 Nordeste 14 Este 0 1016.7 0.2 83
2019-04-20 02:00:00 12.2 9 Este 14 Este 0 1016.6 0 82
2019-04-20 01:00:00 13.4 3 Este 16 Este 0 1016.6 0.5 74
2019-04-20 00:00:00 14.1 8 Este 23 Este 0 1016.5 1.6 68
2019-04-19 23:00:00 13.7 11 Este 28 Este 0 1016.6 2.5 78
2019-04-19 22:00:00 13.8 12 Este 28 Este 0 1016.1 2.4 80
2019-04-19 21:00:00 14.3 10 Este 26 Este 0 1014.9 1.6 80
2019-04-19 20:00:00 14.8 16 Nordeste 37 Nordeste 0 1014.1 1.3 79
2019-04-19 19:00:00 15.1 15 Nordeste -- -- 0 1013.7 1 80
2019-04-19 18:00:00 15.3 15 Nordeste 31 Nordeste 0 1013.3 1.1 81
2019-04-19 17:00:00 15.4 16 Nordeste 34 Nordeste 0 1012.8 0.9 82
2019-04-19 16:00:00 15.4 14 Nordeste 32 Nordeste 0 1012.7 0.8 82
2019-04-19 15:00:00 15.7 11 Nordeste 30 Nordeste 0 1012.2 0.6 84
2019-04-19 14:00:00 15.2 12 Nordeste 33 Nordeste 0 1011.9 0.7 86
2019-04-19 13:00:00 14.3 15 Nordeste 32 Este 0 1011.9 1.4 89
2019-04-19 12:00:00 13.3 18 Nordeste 38 Nordeste 0 1011.6 1.2 91
2019-04-19 11:00:00 13.2 20 Nordeste 39 Nordeste 0 1011.2 1.8 90
2019-04-19 10:00:00 13 16 Nordeste 33 Nordeste 0 1010.5 1.3 91
2019-04-19 09:00:00 13 16 Nordeste 30 Nordeste 0 1010.4 1.4 90
2019-04-19 08:00:00 12.9 9 Norte 31 Norte 0 1009.4 -0.1 91
2019-04-19 07:00:00 13 8 Oeste 19 Oeste 0.2 1009.2 0 90
2019-04-19 06:00:00 12.9 7 Oeste 29 Nordeste 0.2 1009 -0.2 90
2019-04-19 05:00:00 12.8 9 Noroeste 28 Nordeste 0.8 1009.5 -0.1 90
2019-04-19 04:00:00 12.8 7 Noroeste 21 Nordeste 0.2 1009.2 -0.7 90
2019-04-19 03:00:00 12.8 7 Oeste 28 Nordeste 0.2 1009.2 -1 90
2019-04-19 02:00:00 12.8 8 Noroeste 25 Nordeste 0 1009.6 -0.4 90
2019-04-19 01:00:00 12.7 6 Oeste 20 Nordeste 0 1009.9 0.4 90
2019-04-19 00:00:00 12.5 13 Nordeste 23 Nordeste 0.2 1010.2 1.4 89
2019-04-18 23:00:00 12.8 6 Norte 22 Nordeste 0.2 1010 1.9 88
2019-04-18 22:00:00 12.8 4 Noroeste 24 Nordeste 0.2 1009.5 1.9 87
2019-04-18 21:00:00 13.1 10 Nordeste 24 Nordeste 0.2 1008.8 1.8 87
2019-04-18 20:00:00 13.3 12 Nordeste 31 Nordeste 0 1008.1 1.4 85
2019-04-18 19:00:00 13.7 17 Nordeste 42 Nordeste 0 1007.6 0.9 84
2019-04-18 18:00:00 14.2 18 Nordeste 40 Nordeste 0 1007 0.4 82
2019-04-18 17:00:00 14.9 20 Nordeste 42 Nordeste 0 1006.7 0 80
2019-04-18 16:00:00 15.2 13 Nordeste 29 Nordeste 0 1006.7 0.1 80
2019-04-18 15:00:00 15.7 18 Nordeste 31 Nordeste 0 1006.6 0.4 76
2019-04-18 14:00:00 15.8 13 Nordeste 30 Nordeste 0 1006.7 0.9 77
2019-04-18 13:00:00 15.2 7 Nordeste 12 Nordeste 0 1006.6 1.6 75
2019-04-18 12:00:00 14.9 6 Este 13 Este 0 1006.2 1.6 78
2019-04-18 11:00:00 14.5 5 Este 14 Sudeste 0 1005.8 2.2 76
2019-04-18 10:00:00 12.5 9 Sudeste 19 Sudeste 0 1005 1.9 80
2019-04-18 09:00:00 11.3 15 Sudeste 19 Sudeste 0 1004.6 1.7 84
2019-04-18 08:00:00 11 9 Sudeste 18 Sudeste 0 1003.6 0.9 85
2019-04-18 07:00:00 11.2 9 Sudeste 14 Sudeste 0 1003.1 0.5 86
2019-04-18 06:00:00 12.5 0 Calma 8 Nordeste 0 1002.9 0.3 85
2019-04-18 05:00:00 12.3 6 Noroeste 9 Sudeste 0 1002.7 0.3 85
2019-04-18 04:00:00 12.1 6 Sur 18 Sudeste 0 1002.6 0.8 84
2019-04-18 03:00:00 12.8 11 Sur 21 Oeste 0 1002.6 1.1 80
2019-04-18 02:00:00 12.4 13 Sudoeste 27 Oeste 0 1002.4 1.5 82
2019-04-18 01:00:00 12.3 23 Oeste 35 Oeste 0.8 1001.8 1.2 84
2019-04-18 00:00:00 12.9 11 Sudoeste 21 Sudeste 0 1001.5 1.5 76
2019-04-17 23:00:00 13.4 4 Oeste 22 Sur 0 1000.9 1.7 72
2019-04-17 22:00:00 13.5 12 Sur 15 Sur 0.4 1000.6 1.5 71
2019-04-17 21:00:00 14.8 7 Sur 24 Oeste 0 1000 1.3 62
2019-04-17 20:00:00 15.1 3 Oeste 17 Oeste 0 999.2 0.4 59
2019-04-17 19:00:00 15.7 11 Oeste 20 Oeste 0 999.1 0.6 63
2019-04-17 18:00:00 16.8 10 Oeste 15 Oeste 0 998.7 0.4 67
2019-04-17 17:00:00 17 8 Oeste 15 Oeste 0 998.8 0.3 64
2019-04-17 16:00:00 17.5 4 Oeste 13 Nordeste 0 998.5 0 62
2019-04-17 15:00:00 17.2 3 Oeste 13 Nordeste 0 998.3 0 65
2019-04-17 14:00:00 16.8 5 Noroeste 17 Oeste 0 998.5 0.3 65
2019-04-17 13:00:00 16.9 7 Oeste 14 Oeste 0 998.5 0.4 71
2019-04-17 12:00:00 16.8 5 Sudoeste 12 Oeste 0 998.3 0.3 71
2019-04-17 11:00:00 17.3 -- -- -- -- 0 998.2 0.3 66
2019-04-17 10:00:00 15.3 14 Sudeste 25 Sudeste 0 998.1 0.7 62
2019-04-17 09:00:00 12.9 17 Sur 24 Sur 0 998 -0.4 68
2019-04-17 08:00:00 12.4 6 Sur 25 Sudeste 0 997.9 -1.2 70
2019-04-17 07:00:00 12.5 18 Sudeste 25 Sudeste 0 997.4 -2.4 70
2019-04-17 06:00:00 12.3 6 Este 19 Sudeste 0 998.4 -2.6 77
2019-04-17 05:00:00 12.1 5 Este 18 Sudeste 0 999.1 -3.1 77
2019-04-17 04:00:00 11.9 9 Este 18 Sudeste 0 999.8 -2.9 81
2019-04-17 03:00:00 11.4 8 Sudeste 13 Sudeste 0 1001 -2 83
2019-04-17 02:00:00 12.4 12 Sudoeste 18 Sudoeste 0 1002.2 -1.7 84
2019-04-17 01:00:00 12.9 12 Este 24 Nordeste 0 1002.7 -1.7 84
2019-04-17 00:00:00 13.1 15 Este 27 Este 0 1003 -1.7 84
2019-04-16 23:00:00 13.1 18 Este 37 Nordeste 0 1003.9 -1.1 84
2019-04-16 22:00:00 13.2 22 Este 40 Nordeste 0 1004.4 -1 84
2019-04-16 21:00:00 13.2 22 Nordeste 39 Nordeste 0 1004.7 -1 83
2019-04-16 20:00:00 13.5 22 Nordeste 43 Nordeste 0 1005 -1.7 81
2019-04-16 19:00:00 14 24 Nordeste 49 Nordeste 0 1005.4 -1.8 76
2019-04-16 18:00:00 14 31 Nordeste -- -- 0 1005.7 -2.1 73
2019-04-16 17:00:00 14.3 -- -- -- -- 0 1006.7 -1.8 72
2019-04-16 16:00:00 14.3 26 Nordeste 48 Nordeste 0 1007.2 -1.9 72
2019-04-16 15:00:00 14.4 25 Nordeste 45 Nordeste 0 1007.8 -2 70
2019-04-16 14:00:00 14.5 24 Nordeste 42 Nordeste 0 1008.5 -1.3 71
2019-04-16 13:00:00 14.4 16 Este 28 Nordeste 0 1009.1 -0.8 71
2019-04-16 12:00:00 15.1 4 Nordeste 14 Este 0 1009.8 -0.2 68
2019-04-16 11:00:00 15.1 6 Este 20 Sudeste 0 1009.8 -0.1 64
2019-04-16 10:00:00 12 15 Sudeste 26 Sudeste 0 1009.9 0.1 70
2019-04-16 09:00:00 9.3 22 Sudeste 30 Sudeste 0 1010 -0.1 78
2019-04-16 08:00:00 8.1 19 Sudeste 27 Sudeste 0 1009.9 -0.3 82
2019-04-16 07:00:00 8 19 Sudeste 27 Sudeste 0 1009.8 -0.2 84
2019-04-16 06:00:00 8.5 21 Sudeste 27 Sudeste 0 1010.1 -0.5 86
2019-04-16 05:00:00 8.8 18 Sudeste 25 Sudeste 0 1010.2 -0.3 87
2019-04-16 04:00:00 9.4 15 Sudeste 21 Sudeste 0 1010 -0.4 86
2019-04-16 03:00:00 9.6 16 Sudeste 21 Sudeste 0 1010.6 0.2 86
2019-04-16 02:00:00 10.4 15 Sudeste 19 Sudeste 0 1010.5 0.5 85
2019-04-16 01:00:00 10.3 13 Sudeste 18 Sudeste 0 1010.4 1.3 85
2019-04-16 00:00:00 10.7 11 Sur 15 Sur 0 1010.4 2.3 82
2019-04-15 23:00:00 11.9 10 Sudoeste 31 Oeste 0 1010 3.1 80
2019-04-15 22:00:00 12.3 17 Oeste 31 Noroeste 0 1009.1 3.9 80
2019-04-15 21:00:00 12.7 18 Oeste 46 Oeste 0 1008.1 3.8 80
2019-04-15 20:00:00 12.8 23 Oeste 48 Oeste 0.4 1006.9 4.5 83
2019-04-15 19:00:00 12.7 35 Oeste 58 Oeste 0 1005.2 3.2 82
2019-04-15 18:00:00 12.9 28 Oeste 77 Oeste 0.8 1004.3 2.7 83
2019-04-15 17:00:00 15.8 28 Oeste 64 Oeste 0 1002.4 2.7 65
2019-04-15 16:00:00 15.9 39 Oeste 49 Oeste 0 1002 2.2 62
2019-04-15 15:00:00 15.9 30 Oeste 66 Oeste 0 1001.6 1.7 65
2019-04-15 14:00:00 15.6 42 Oeste 87 Oeste 0 999.7 -0.2 71
2019-04-15 13:00:00 18.5 19 Oeste 32 Oeste 0 999.8 1.1 69
2019-04-15 12:00:00 16.6 10 Sudoeste 15 Este 1.6 999.9 1.5 83
2019-04-15 11:00:00 15.9 5 Sur 46 Oeste 2.2 999.9 1.2 84
2019-04-15 10:00:00 15 30 Oeste 47 Oeste 0.2 998.7 -0.5 83
2019-04-15 09:00:00 16.4 16 Sur 24 Sur 0 998.4 -1.8 74
2019-04-15 08:00:00 16.4 15 Sudeste 26 Sudeste 0 998.7 -2.4 74
2019-04-15 07:00:00 16.5 18 Sudeste 24 Sudeste 0 999.2 -3.1 74
2019-04-15 06:00:00 16.4 18 Sudeste 25 Sudeste 0 1000.2 -3 75
2019-04-15 05:00:00 16 14 Sudeste 19 Sudeste 0 1001.1 -2.6 76
2019-04-15 04:00:00 16.1 8 Sur 13 Sudeste 0 1002.3 -2 77
2019-04-15 03:00:00 16 8 Oeste 15 Sudoeste 0 1003.2 -1.8 78
2019-04-15 02:00:00 15.9 12 Este 22 Este 0 1003.7 -1.8 76
2019-04-15 01:00:00 15.9 17 Este 22 Este 0 1004.3 -1 77
2019-04-15 00:00:00 15.9 14 Este 23 Este 0 1005 -0.1 77
2019-04-14 23:00:00 16.4 13 Este 26 Este 0 1005.5 0.4 75
2019-04-14 22:00:00 16.8 18 Este 39 Nordeste 0 1005.3 -0.1 74
2019-04-14 21:00:00 17.4 22 Este 37 Este 0 1005.1 -0.7 71
2019-04-14 20:00:00 17.4 18 Este 36 Este 0 1005.1 -1.4 70
2019-04-14 19:00:00 18.7 24 Este 41 Este 0 1005.4 -2 65
2019-04-14 18:00:00 18.2 25 Este 38 Este 0 1005.8 -2.1 68
2019-04-14 17:00:00 18.6 18 Este 31 Este 0 1006.5 -1.9 66
2019-04-14 16:00:00 20.3 15 Este 26 Sudeste 0 1007.4 -1.2 61
2019-04-14 15:00:00 19.2 14 Este 24 Este 0 1007.9 -0.7 63
2019-04-14 14:00:00 18.2 14 Este 27 Este 0 1008.4 0.4 64
2019-04-14 13:00:00 18.2 12 Este 18 Este 0 1008.6 0.7 64
2019-04-14 12:00:00 18.4 11 Este -- -- 0 1008.6 0.6 61
2019-04-14 11:00:00 19.3 7 Nordeste -- -- 0 1008 0.1 63
2019-04-14 10:00:00 19.5 0 Calma -- -- 0 1007.9 0.1 67
2019-04-14 09:00:00 15.8 10 Sur 15 Sudoeste 0 1008 -0.2 76
2019-04-14 08:00:00 14.9 9 Sur 14 Sudeste 0 1007.9 -0.6 76
2019-04-14 07:00:00 14.6 10 Sudeste 13 Sudeste 0 1007.8 -0.9 76
2019-04-14 06:00:00 14.3 7 Sudeste 11 Sur 0 1008.2 -0.9 75
2019-04-14 05:00:00 14.3 9 Sudeste 14 Sudeste 0 1008.5 -1 73
2019-04-14 04:00:00 14.2 9 Sudeste 14 Sudeste 0 1008.7 -1.3 71
2019-04-14 03:00:00 14.2 4 Sur 15 Sudeste 0 1009.1 -1 69
2019-04-14 02:00:00 14.3 11 Sudeste 14 Sudeste 0 1009.5 -0.9 69
2019-04-14 01:00:00 14.6 5 Noroeste 19 Sudeste 0 1010 -0.2 73
2019-04-14 00:00:00 13.8 8 Sudoeste 13 Sur 0 1010.1 0.4 79
2019-04-13 23:00:00 13.8 8 Sur 10 Sudeste 0 1010.4 0.8 82
2019-04-13 22:00:00 13.6 8 Oeste 17 Oeste 0 1010.2 1.2 84
2019-04-13 21:00:00 14.2 8 Oeste 12 Oeste 0 1009.7 0.5 81
2019-04-13 20:00:00 15 2 Norte 17 Este 0 1009.6 0.2 74
2019-04-13 19:00:00 15.1 12 Este 22 Este 0 1009 -0.7 74
2019-04-13 18:00:00 16.5 14 Este 22 Este 0 1009.2 -0.7 64
2019-04-13 17:00:00 16.4 11 Este 24 Este 0 1009.4 -0.6 69
2019-04-13 16:00:00 15.3 14 Este 24 Este 0 1009.7 -0.5 74
2019-04-13 15:00:00 15.3 15 Este 22 Este 0 1009.9 -0.6 74
2019-04-13 14:00:00 14.9 -- -- -- -- 0 1010 -0.6 73
2019-04-13 13:00:00 15.6 -- -- -- -- 0 1010.2 -0.3 68
2019-04-13 12:00:00 16.2 5 Nordeste -- -- 0 1010.5 -0.1 65
2019-04-13 11:00:00 15.5 -- -- -- -- 0 1010.6 -0.1 65
2019-04-13 10:00:00 13.4 8 Sudeste -- -- 0 1010.5 0 73
2019-04-13 09:00:00 10.8 17 Sudeste 24 Sudeste 0 1010.6 -0.2 80
2019-04-13 08:00:00 9.6 15 Sudeste 19 Sudeste 0 1010.7 -0.2 80
2019-04-13 07:00:00 9.6 13 Sudeste 17 Sur 0 1010.5 -0.5 82
2019-04-13 06:00:00 9.3 10 Sur 15 Sudeste 0 1010.8 -0.7 82
2019-04-13 05:00:00 9 13 Sur 16 Sur 0 1010.9 -0.7 83
2019-04-13 04:00:00 9 11 Sur 14 Sudeste 0 1011 -0.8 81
2019-04-13 03:00:00 9.4 9 Sudeste 18 Sur 0 1011.5 -0.5 80
2019-04-13 02:00:00 9.9 10 Sur 19 Sudeste 0 1011.6 -0.2 79
2019-04-13 01:00:00 9.7 14 Sur 17 Sudeste 0 1011.8 0.1 81
2019-04-13 00:00:00 9.7 7 Sur 13 Sudeste 0 1012 1 81
2019-04-12 23:00:00 10.7 4 Sur 17 Este 0 1011.8 1.1 81
2019-04-12 22:00:00 12.2 12 Este 32 Este 0 1011.7 0.7 81
2019-04-12 21:00:00 12.6 17 Este 34 Este 0 1011 -0.1 80
2019-04-12 20:00:00 13.1 18 Nordeste 39 Nordeste 0 1010.7 -0.6 78
2019-04-12 19:00:00 13.3 22 Nordeste 43 Nordeste 0 1011 -1.1 76
2019-04-12 18:00:00 13.6 21 Nordeste 41 Nordeste 0 1011.1 -1.7 74
2019-04-12 17:00:00 13.6 24 Nordeste 44 Nordeste 0 1011.3 -2 74
2019-04-12 16:00:00 13.7 23 Nordeste 46 Nordeste 0 1012.1 -1.6 74
2019-04-12 15:00:00 13.6 25 Nordeste 42 Nordeste 0 1012.8 -1.2 71
2019-04-12 14:00:00 13.8 18 Nordeste -- -- 0 1013.3 -0.7 74
2019-04-12 13:00:00 13.4 9 Nordeste 23 Nordeste 0 1013.7 -0.2 69
2019-04-12 12:00:00 12.7 -- -- -- -- 0 1014 0.4 73
2019-04-12 11:00:00 13.1 6 Oeste -- -- 0 1014 0.3 73
2019-04-12 10:00:00 9.6 -- -- -- -- 0 1013.9 0.6 78
2019-04-12 09:00:00 7.4 17 Sudeste 24 Sudeste 0 1013.6 0 83
2019-04-12 08:00:00 6.6 18 Sudeste 25 Sudeste 0 1013.7 -0.3 84
2019-04-12 07:00:00 7.5 17 Sudeste 30 Sudeste 0 1013.3 -1.1 83
2019-04-12 06:00:00 7 20 Sudeste 26 Sudeste 0 1013.6 -1.3 86
2019-04-12 05:00:00 7 19 Sudeste 26 Sudeste 0 1014 -1 86
2019-04-12 04:00:00 7.2 18 Sudeste 24 Sudeste 0 1014.4 -0.7 87
2019-04-12 03:00:00 7.4 14 Sudeste 18 Sudeste 0 1014.9 -0.5 87
2019-04-12 02:00:00 7.9 13 Sudeste 19 Sudeste 0 1015 -0.5 87
2019-04-12 01:00:00 8.6 10 Sudeste 15 Sudeste 0 1015.1 -0.3 86
2019-04-12 00:00:00 9 10 Sudeste 15 Sudeste 0 1015.4 0.1 86
2019-04-11 23:00:00 9.5 9 Sudeste 13 Sudeste 0 1015.5 0.3 84
2019-04-11 22:00:00 11.1 5 Este 12 Nordeste 0 1015.4 0.1 79
2019-04-11 21:00:00 12.3 4 Norte 10 Norte 0 1015.3 0.1 77
2019-04-11 20:00:00 13.1 4 Noroeste 13 Noroeste 0 1015.2 -0.1 75
2019-04-11 19:00:00 13.1 7 Noroeste 15 Oeste 0 1015.3 -0.2 73
2019-04-11 18:00:00 13.7 8 Noroeste 34 Noroeste 0 1015.2 -0.5 71
2019-04-11 17:00:00 14.6 9 Noroeste 19 Noroeste 0 1015.3 -0.4 70
2019-04-11 16:00:00 13.4 15 Noroeste 22 Oeste 0 1015.5 -0.3 72
2019-04-11 15:00:00 13.3 16 Oeste -- -- 0 1015.7 0.2 72
2019-04-11 14:00:00 14.5 13 Oeste 23 Oeste 0 1015.7 0.5 75
2019-04-11 13:00:00 13 17 Oeste 24 Oeste 0 1015.8 0.9 76
2019-04-11 12:00:00 13 9 Oeste 21 Noroeste 0 1015.5 0.9 76
2019-04-11 11:00:00 11.5 10 Oeste 15 Oeste 0 1015.2 0.7 78
2019-04-11 10:00:00 9.1 13 Sur 19 Sur 0 1014.9 0.8 81
2019-04-11 09:00:00 7.9 15 Sur 20 Sur 0 1014.6 0.3 84
2019-04-11 08:00:00 7.6 14 Sur 20 Sur 0 1014.5 0.2 84
2019-04-11 07:00:00 7.9 13 Sur 19 Sur 0 1014.1 0 84
2019-04-11 06:00:00 8.7 13 Sur 17 Sur 0 1014.3 0.1 83
2019-04-11 05:00:00 9.2 12 Sur -- -- 0 1014.3 -0.1 83
2019-04-11 04:00:00 9 13 Sur 18 Sur 0 1014.1 -0.3 84
2019-04-11 03:00:00 9.3 12 Sur 16 Sur 0 1014.2 -0.2 84
2019-04-11 02:00:00 9.6 11 Sur 15 Sudoeste 0 1014.4 0 83
2019-04-11 01:00:00 10.9 13 Oeste 17 Sudoeste 0 1014.4 0.6 81
2019-04-11 00:00:00 11 10 Sudoeste 17 Oeste 0 1014.4 1.5 81
2019-04-10 23:00:00 11.6 13 Oeste 20 Oeste 0 1014.4 1.9 80
2019-04-10 22:00:00 11.9 14 Noroeste 26 Noroeste 0 1013.8 1.6 79
2019-04-10 21:00:00 12.3 13 Noroeste 21 Oeste 0 1012.9 1 80
2019-04-10 20:00:00 13.7 15 Oeste 65 Noroeste 0 1012.5 0.8 74
2019-04-10 19:00:00 13.4 9 Oeste 19 Noroeste 0 1012.2 0.8 77
2019-04-10 18:00:00 14.2 13 Noroeste 19 Noroeste 0 1011.9 0.9 70
2019-04-10 17:00:00 14.7 11 Noroeste 20 Noroeste 0 1011.7 1.1 69
2019-04-10 16:00:00 14.3 12 Noroeste 18 Norte 0 1011.4 1.2 69
2019-04-10 15:00:00 14.8 -- -- -- -- 0 1011 1.4 68
2019-04-10 14:00:00 13.6 8 Noroeste 27 Norte 0 1010.6 2.2 72
2019-04-10 13:00:00 12.9 20 Norte 29 Norte 0 1010.2 3.3 75
2019-04-10 12:00:00 12.7 -- -- -- -- 0 1009.6 3.7 76
2019-04-10 11:00:00 12 31 Noroeste 51 Oeste 0 1008.4 3.7 80
2019-04-10 10:00:00 11.9 37 Oeste 62 Oeste 0.2 1006.9 2.6 82
2019-04-10 09:00:00 11.1 46 Oeste 69 Oeste 0.2 1005.9 1.7 86
2019-04-10 08:00:00 10.9 48 Oeste 71 Oeste 0.2 1004.7 1 86
2019-04-10 07:00:00 10.7 41 Oeste 62 Oeste 0.2 1004.3 0.5 85
2019-04-10 06:00:00 9.9 32 Oeste 60 Oeste 2.2 1004.2 0.2 85
2019-04-10 05:00:00 10.2 42 Oeste 65 Oeste 0.6 1003.7 -0.5 79
2019-04-10 04:00:00 10.1 39 Oeste 58 Oeste 0.4 1003.8 -0.2 77
2019-04-10 03:00:00 10.2 44 Oeste 72 Oeste 2 1004 0.1 75
2019-04-10 02:00:00 11.1 18 Sudoeste 55 Oeste 0.2 1004.2 0.6 66
2019-04-10 01:00:00 11.9 25 Oeste 48 Oeste 0 1004 0.9 61
2019-04-10 00:00:00 11.5 34 Oeste 49 Oeste 0 1003.9 1.3 66
2019-04-09 23:00:00 11.7 39 Oeste 53 Oeste 0 1003.6 1.8 66
2019-04-09 22:00:00 11.7 34 Oeste 56 Oeste 0 1003.1 1.4 68
2019-04-09 21:00:00 11.8 23 Sudoeste 56 Oeste 0.6 1002.6 1.1 69
2019-04-09 20:00:00 13.2 37 Oeste 57 Oeste 0 1001.8 0.8 59
2019-04-09 19:00:00 14.2 28 Sudoeste 59 Oeste 0 1001.7 0.5 60
2019-04-09 18:00:00 12.2 -- -- -- -- 0 1001.5 0.3 69
2019-04-09 17:00:00 15.4 42 Oeste 60 Oeste 0 1001 -0.6 48
2019-04-09 16:00:00 16.1 40 Oeste 64 Oeste 0 1001.2 -1.3 47
2019-04-09 15:00:00 15.9 41 Oeste 57 Oeste 0 1001.2 -0.8 48
2019-04-09 14:00:00 15.1 33 Oeste 63 Oeste 0 1001.6 -0.8 46
2019-04-09 13:00:00 13 26 Oeste 54 Sudoeste 0 1002.5 0.1 55
2019-04-09 12:00:00 13.1 38 Oeste 58 Oeste 0 1002 0 56
2019-04-09 11:00:00 12.2 17 Sudoeste 46 Oeste 0 1002.4 0.9 56
2019-04-09 10:00:00 10.9 15 Sudoeste 32 Sudoeste 0 1002.4 1.4 67
2019-04-09 09:00:00 10.7 7 Sudoeste 22 Oeste 0 1002 1.1 70
2019-04-09 08:00:00 10.4 5 Sur 13 Sudoeste 0 1001.5 0.5 68
2019-04-09 07:00:00 10.7 3 Sur 17 Sur 0 1001 -0.1 64
2019-04-09 06:00:00 11.3 8 Sudeste 18 Sur 0 1000.9 -0.7 62
2019-04-09 05:00:00 11.9 9 Sudoeste 24 Sudoeste 0 1001 -0.7 58
2019-04-09 04:00:00 11.2 4 Sur 10 Oeste 0 1001.1 -1 62
2019-04-09 03:00:00 10.9 0 Calma 19 Sudeste 0 1001.6 -0.6 63
2019-04-09 02:00:00 9.9 12 Sudeste 35 Oeste 0 1001.7 -0.8 71
2019-04-09 01:00:00 10.1 12 Sur 22 Sudeste 0 1002.1 -0.5 72
2019-04-09 00:00:00 10.6 17 Sudeste 22 Sudeste 0 1002.2 0.3 70
2019-04-08 23:00:00 10.2 18 Sudeste 33 Sur 0 1002.5 0.4 72
2019-04-08 22:00:00 12.6 21 Sudoeste 31 Sur 0 1002.6 0.2 55
2019-04-08 21:00:00 12.4 15 Este 28 Este 0 1001.9 -0.2 70
2019-04-08 20:00:00 12.6 15 Este 31 Este 0 1002.1 -0.7 70
2019-04-08 19:00:00 13 20 Este 49 Oeste 0 1002.4 0.3 69
2019-04-08 18:00:00 13.9 45 Oeste 64 Oeste 0 1002.1 -0.7 48
2019-04-08 17:00:00 13.6 20 Oeste 46 Sudoeste 0.2 1002.8 -0.1 72
2019-04-08 16:00:00 16.2 29 Oeste 43 Oeste 0 1002.1 -0.9 44
2019-04-08 15:00:00 15.1 -- -- -- -- 0 1002.8 -0.7 49
2019-04-08 14:00:00 15.7 24 Oeste 45 Oeste 0 1002.9 -0.1 44
2019-04-08 13:00:00 15.3 39 Oeste 58 Oeste 0 1003 0 45
2019-04-08 12:00:00 14 31 Oeste 48 Oeste 0 1003.5 0.5 58
2019-04-08 11:00:00 12.5 35 Oeste 50 Oeste 0 1003 0.7 60
2019-04-08 10:00:00 12.5 28 Oeste 37 Oeste 0 1003 1.5 58
2019-04-08 09:00:00 11.1 17 Oeste 24 Sudoeste 0 1003 1.8 70
2019-04-08 08:00:00 10.4 5 Oeste 38 Oeste 0 1002.3 1.6 76
2019-04-08 07:00:00 11.6 25 Oeste 45 Oeste 0 1001.5 1.1 73
2019-04-08 06:00:00 11.3 23 Oeste 31 Oeste 0 1001.2 1.3 82
2019-04-08 05:00:00 11.4 24 Oeste 44 Oeste 0.4 1000.7 2.1 84
2019-04-08 04:00:00 11.2 33 Oeste 56 Oeste 1.2 1000.4 1.6 84
2019-04-08 03:00:00 12.1 23 Oeste 59 Oeste 0.2 999.9 1 81
2019-04-08 02:00:00 11.8 10 Sur 22 Sudoeste 0 998.6 -0.4 74
2019-04-08 01:00:00 11.7 7 Oeste 21 Sudeste 1 998.8 -0.1 77
2019-04-08 00:00:00 11.8 2 Oeste 19 Sur 0.2 998.9 -0.2 74
2019-04-07 23:00:00 11.5 6 Este 13 Sudeste 0.2 999 -1.8 73
2019-04-07 22:00:00 11.8 6 Este 24 Sudoeste 0 998.9 -2.3 67
2019-04-07 21:00:00 10.1 10 Este 23 Sudeste 0 999.1 -1.5 77
2019-04-07 20:00:00 10.1 12 Sudeste 19 Sudeste 1.6 1000.8 0.4 79
2019-04-07 19:00:00 11.7 6 Sur -- -- 0.2 1001.2 0.8 69
2019-04-07 18:00:00 12.4 19 Este 28 Este 0 1000.6 0.1 65
2019-04-07 17:00:00 12.8 14 Nordeste 28 Nordeste 0 1000.4 -0.4 62
2019-04-07 16:00:00 13.9 13 Nordeste 59 Noroeste 0 1000.4 -0.9 58
2019-04-07 15:00:00 15.1 16 Oeste 28 Oeste 0 1000.5 -0.7 50
2019-04-07 14:00:00 16.7 19 Oeste 31 Oeste 0 1000.8 -0.4 45
2019-04-07 13:00:00 16.1 13 Oeste 33 Oeste 0 1001.3 0.1 51
2019-04-07 12:00:00 13.7 22 Oeste 38 Oeste 0 1001.2 0.5 49
2019-04-07 11:00:00 12.1 22 Oeste 37 Oeste 0 1001.2 1.1 53
2019-04-07 10:00:00 10.8 17 Sudoeste 29 Sudoeste 0 1001.2 2 60
2019-04-07 09:00:00 9.5 20 Sudoeste 42 Oeste 0 1000.7 2.3 63
2019-04-07 08:00:00 9 27 Sudoeste 46 Sudoeste 0 1000.1 2.1 62
2019-04-07 07:00:00 8.9 25 Oeste 49 Oeste 0 999.2 1.7 61
2019-04-07 06:00:00 9.1 33 Oeste 60 Oeste 0 998.4 1.1 64
2019-04-07 05:00:00 9.3 35 Oeste 50 Oeste 0 998 1.3 64
2019-04-07 04:00:00 9.2 30 Oeste 53 Oeste 0 997.5 1.5 66
2019-04-07 03:00:00 9.3 35 Oeste 54 Sudoeste 0 997.3 1.4 68
2019-04-07 02:00:00 9 32 Sudoeste 58 Oeste 0 996.7 0.8 71
2019-04-07 01:00:00 8.7 38 Oeste 56 Oeste 0 996 0.5 73
2019-04-07 00:00:00 8.6 40 Oeste 55 Oeste 0.4 995.9 0.6 77
2019-04-06 23:00:00 8.2 29 Oeste 68 Oeste 0.4 995.9 2 81
2019-04-06 22:00:00 8.8 29 Oeste 47 Oeste 3.8 995.5 1.8 83
2019-04-06 21:00:00 8.5 17 Oeste 67 Oeste 6.6 995.3 3.3 84
2019-04-06 20:00:00 9 40 Oeste 68 Oeste 0.4 993.9 2.1 80
2019-04-06 19:00:00 9.4 10 Oeste 69 Oeste 1.8 993.7 2.5 82
2019-04-06 18:00:00 10.8 25 Oeste 59 Oeste 0 992 1.2 73
2019-04-06 17:00:00 11.1 30 Oeste 55 Oeste 0 991.8 1.4 75
2019-04-06 16:00:00 10.1 34 Oeste 47 Oeste 1 991.2 1 77
2019-04-06 15:00:00 10.4 13 Sudoeste 45 Oeste 0.2 990.8 0.9 70
2019-04-06 14:00:00 11.3 22 Oeste 36 Oeste 0.2 990.4 1 72
2019-04-06 13:00:00 10.3 6 Sur 18 Oeste 0.2 990.2 1.4 66
2019-04-06 12:00:00 11 4 Noroeste 20 Noroeste 0.2 989.9 1.3 67
2019-04-06 11:00:00 10.4 5 Sudoeste 16 Sur 0 989.4 1.2 65
2019-04-06 10:00:00 9.8 10 Sudeste 17 Sudeste 0 988.8 0.4 61
2019-04-06 09:00:00 9.5 8 Este 15 Sudeste 0 988.6 -0.3 56
2019-04-06 08:00:00 9.1 7 Este 22 Sur 0 988.2 -1.1 59
2019-04-06 07:00:00 9.2 14 Sur 30 Oeste 0 988.4 -1.3 59
2019-04-06 06:00:00 9.7 11 Sudoeste 26 Oeste 0 988.9 -1.1 59
2019-04-06 05:00:00 9.8 6 Sudeste 21 Oeste 0 989.3 -1.2 57
2019-04-06 04:00:00 10.1 10 Sudoeste 35 Oeste 0 989.7 -1.4 61
2019-04-06 03:00:00 10.2 18 Oeste 32 Oeste 0 990 -1.3 61
2019-04-06 02:00:00 10.3 22 Oeste 46 Oeste 0 990.5 -0.8 58
2019-04-06 01:00:00 10.1 15 Sudoeste 34 Oeste 0 991.1 0 58
2019-04-06 00:00:00 9.5 15 Sur 26 Sudoeste 0 991.3 0.6 60
2019-04-05 23:00:00 9.6 13 Sudoeste 29 Sudoeste 0 991.3 0.8 64
2019-04-05 22:00:00 9.7 18 Sudoeste 31 Sudoeste 0 991.1 0.8 66
2019-04-05 21:00:00 10.2 8 Oeste 18 Oeste 0 990.7 1.8 72
2019-04-05 20:00:00 10.6 13 Oeste 27 Sudoeste 0 990.5 1.9 70
2019-04-05 19:00:00 10.6 8 Sudoeste -- -- 0.2 990.3 2.5 72
2019-04-05 18:00:00 10.1 46 Oeste 81 Oeste 0 988.9 1 70
2019-04-05 17:00:00 12.8 36 Oeste 69 Oeste 0 988.6 0.6 50
2019-04-05 16:00:00 13.2 45 Oeste -- -- 0 987.8 -0.6 46
2019-04-05 15:00:00 13.3 32 Oeste 60 Oeste 0 987.9 -0.4 38
2019-04-05 14:00:00 13.9 25 Sudoeste 61 Oeste 0 988 -0.5 42
2019-04-05 13:00:00 12.5 21 Sudoeste 54 Oeste 0 988.4 0.1 44
2019-04-05 12:00:00 11.4 39 Oeste 53 Oeste 0 988.3 0 45
2019-04-05 11:00:00 11.4 15 Oeste 31 Oeste 0 988.5 0.5 50
2019-04-05 10:00:00 9.5 13 Sudoeste 49 Sudoeste 0 988.3 0.6 59
2019-04-05 09:00:00 7.4 7 Sudoeste 23 Oeste 0 988.3 0.5 67
2019-04-05 08:00:00 8 17 Oeste 32 Oeste 0 988 0 69
2019-04-05 07:00:00 8.6 13 Sudoeste 33 Oeste 0 987.7 -0.2 67
2019-04-05 06:00:00 7.7 7 Sur 26 Oeste 0 987.8 -0.3 72
2019-04-05 05:00:00 8.5 5 Sur 35 Sudoeste 0 988 -0.4 68
2019-04-05 04:00:00 8.8 18 Sudoeste 37 Oeste 0 987.9 -0.5 69
2019-04-05 03:00:00 8.9 23 Oeste 33 Oeste 0 988.1 -0.3 73
2019-04-05 02:00:00 9.3 7 Oeste 26 Oeste 1.2 988.4 0.1 76
2019-04-05 01:00:00 9.9 5 Oeste 20 Oeste 0.4 988.4 0 70
2019-04-05 00:00:00 10.9 9 Sur 32 Oeste 0 988.4 0 58
2019-04-04 23:00:00 11.7 19 Sudoeste 46 Sur 0 988.3 -0.3 55
2019-04-04 22:00:00 11.7 12 Oeste 45 Oeste 0 988.4 -0.5 55
2019-04-04 21:00:00 12 12 Oeste 30 Oeste 0 988.4 -1.1 55
2019-04-04 20:00:00 12.4 13 Oeste 32 Sudoeste 0 988.6 -1.2 55
2019-04-04 19:00:00 12.4 5 Sudoeste 30 Oeste 0 988.9 -1.4 57
2019-04-04 18:00:00 12.3 20 Oeste 33 Sudoeste 0 989.5 -1.6 57
2019-04-04 17:00:00 12.4 9 Sudoeste 30 Sudoeste 0 989.8 -2.3 55
2019-04-04 16:00:00 12.7 17 Sur 38 Sur 0 990.3 -2.9 49
2019-04-04 15:00:00 13 11 Sudoeste 41 Oeste 0 991.1 -2.9 49
2019-04-04 14:00:00 13 18 Sudoeste 47 Oeste 0 992.1 -3 50
2019-04-04 13:00:00 12.2 23 Sudoeste 57 Oeste 0 993.2 -2.8 49
2019-04-04 12:00:00 10.9 31 Sudoeste 60 Oeste 0 994 -2.5 55
2019-04-04 11:00:00 9.4 32 Oeste 50 Oeste 0 995.1 -1.6 62
2019-04-04 10:00:00 9 24 Sudoeste 44 Oeste 0 996 -1.1 64
2019-04-04 09:00:00 7.7 28 Oeste 42 Oeste 0 996.5 -1 68
2019-04-04 08:00:00 7.3 24 Oeste 37 Oeste 0 996.7 -1.5 71
2019-04-04 07:00:00 7.4 36 Oeste -- -- 0 997.1 -1.8 73
2019-04-04 06:00:00 7.4 -- -- -- -- 0 997.5 -2.4 73
2019-04-04 05:00:00 7 -- -- -- -- 0 998.2 -2.5 76
2019-04-04 04:00:00 6.7 30 Oeste -- -- 0.6 998.9 -1.9 80
2019-04-04 03:00:00 6.4 15 Sudoeste -- -- 0.2 999.9 -1.9 82
2019-04-04 02:00:00 6.7 13 Sudoeste -- -- 0.8 1000.7 -1.1 81
2019-04-04 01:00:00 7.4 -- -- -- -- 2.8 1000.8 -0.8 80
2019-04-04 00:00:00 6.3 -- -- -- -- 4.2 1001.8 0.3 78
2019-04-03 23:00:00 7.6 27 Oeste 54 Noroeste 0.4 1001.8 -0.4 75
2019-04-03 22:00:00 8.6 41 Oeste 59 Noroeste 1 1001.6 -0.2 67
2019-04-03 21:00:00 8.2 33 Oeste 48 Sudoeste 0 1001.5 -0.4 70
2019-04-03 20:00:00 8.3 27 Oeste 67 Oeste 0 1002.2 0.4 69
2019-04-03 19:00:00 9.4 38 Oeste 71 Oeste 0 1001.8 -0.7 68
2019-04-03 18:00:00 10.8 33 Oeste 62 Oeste 0 1001.9 -1.5 64
2019-04-03 17:00:00 10.5 51 Oeste 78 Noroeste 0 1001.8 -2 65
2019-04-03 16:00:00 11.9 42 Oeste 60 Oeste 0 1002.5 -1.3 66
2019-04-03 15:00:00 11.3 29 Oeste -- -- 0 1003.4 -0.3 64
2019-04-03 14:00:00 10.6 27 Oeste 54 Oeste 0 1003.8 -1 76
2019-04-03 13:00:00 9.4 41 Oeste 75 Oeste 0.4 1003.8 -0.9 76
2019-04-03 12:00:00 8.7 44 Oeste -- -- 0.2 1003.7 -1.2 79
2019-04-03 11:00:00 7.5 -- -- -- -- 1.4 1004.8 0.4 81
2019-04-03 10:00:00 7.4 46 Oeste 66 Oeste 0 1004.7 0 81
2019-04-03 09:00:00 7.9 28 Oeste 59 Oeste 0.4 1004.9 0 82
2019-04-03 08:00:00 7.9 47 Oeste -- -- 0.2 1004.4 -1.3 80
2019-04-03 07:00:00 8.3 38 Oeste 55 Oeste 0 1004.7 -2.1 80
2019-04-03 06:00:00 8.2 38 Oeste 53 Oeste 0.4 1004.9 -2.3 80
2019-04-03 05:00:00 8.3 37 Oeste 47 Oeste 1 1005.7 -2.4 77
2019-04-03 04:00:00 8.2 32 Oeste 47 Sudoeste 0 1006.8 -1.8 80
2019-04-03 03:00:00 8.7 24 Oeste 52 Oeste 0.4 1007.2 -1.8 83
2019-04-03 02:00:00 8.9 34 Oeste 61 Oeste 0.8 1008.1 -1.3 81
2019-04-03 01:00:00 9.8 24 Oeste 42 Oeste 0 1008.6 -0.6 74
2019-04-03 00:00:00 10.2 25 Oeste 46 Noroeste 0 1009 -0.2 71
2019-04-02 23:00:00 10.2 18 Oeste 38 Oeste 0 1009.4 -0.1 79
2019-04-02 22:00:00 10.5 24 Oeste 36 Oeste 0 1009.2 -0.2 76
2019-04-02 21:00:00 10.6 20 Oeste 37 Noroeste 0 1009.2 -0.5 76
2019-04-02 20:00:00 10.7 21 Oeste 50 Oeste 0.2 1009.5 -0.2 80
2019-04-02 19:00:00 11.1 20 Oeste 37 Oeste 0 1009.4 -0.4 78
2019-04-02 18:00:00 11.6 18 Oeste 40 Oeste 0 1009.7 -0.7 75
2019-04-02 17:00:00 11.5 32 Oeste 42 Oeste 0 1009.7 -1.1 78
2019-04-02 16:00:00 12.2 24 Oeste 39 Oeste 0 1009.8 -1.2 75
2019-04-02 15:00:00 13.2 15 Oeste 32 Oeste 0 1010.4 -0.7 71
2019-04-02 14:00:00 12.8 21 Oeste 33 Oeste 0 1010.8 -0.3 69
2019-04-02 13:00:00 13.2 14 Oeste 30 Oeste 0 1011 0.2 76
2019-04-02 12:00:00 12 10 Oeste 17 Oeste 0 1011.1 0.4 76
2019-04-02 11:00:00 11.8 10 Sudoeste 23 Oeste 0 1011.1 0.8 79
2019-04-02 10:00:00 11.8 14 Oeste 22 Oeste 0 1010.8 1 80
2019-04-02 09:00:00 11.4 10 Oeste 25 Noroeste 0 1010.7 1.1 80
2019-04-02 08:00:00 11.9 12 Oeste 34 Oeste 0 1010.3 0.8 80
2019-04-02 07:00:00 11.6 20 Oeste 31 Oeste 0 1009.8 0.2 82
2019-04-02 06:00:00 11.6 14 Sudoeste 22 Sudoeste 0 1009.6 -0.1 81
2019-04-02 05:00:00 11.7 17 Oeste 26 Sudoeste 0 1009.5 -0.2 82
2019-04-02 04:00:00 11.7 14 Sudoeste 24 Oeste 0 1009.6 -0.2 83
2019-04-02 03:00:00 11.6 16 Sudoeste 22 Oeste 0 1009.7 0 82
2019-04-02 02:00:00 11.1 12 Sudoeste 21 Sudoeste 0 1009.7 0.5 83
2019-04-02 01:00:00 12 17 Oeste 22 Sudoeste 0 1009.8 0.9 85
2019-04-02 00:00:00 11.9 12 Sudoeste 14 Sudoeste 0 1009.7 1.6 86
2019-04-01 23:00:00 11.1 9 Sudoeste 13 Oeste 0 1009.2 1.6 84
2019-04-01 22:00:00 11.2 4 Sudoeste 7 Sur 0 1008.9 1.6 83
2019-04-01 21:00:00 13.3 3 Noroeste 7 Sudeste 0 1008.1 0.8 80
2019-04-01 20:00:00 14.6 3 Este -- -- 0 1007.6 0.4 76
2019-04-01 19:00:00 16.2 6 Oeste 10 Oeste 0 1007.3 -0.1 74
2019-04-01 18:00:00 16.3 7 Oeste 11 Noroeste 0 1007.3 -0.2 74
2019-04-01 17:00:00 15.2 6 Noroeste 13 Noroeste 0 1007.2 -0.8 77
2019-04-01 16:00:00 14.3 5 Norte 12 Oeste 0 1007.4 -0.7 79
2019-04-01 15:00:00 15.4 8 Noroeste 11 Oeste 0 1007.5 -0.5 77
2019-04-01 14:00:00 14.9 5 Noroeste 11 Oeste 0 1008 0.3 77
2019-04-01 13:00:00 16.6 8 Oeste 13 Oeste 0 1008.1 0.9 72
2019-04-01 12:00:00 14.9 6 Oeste -- -- 0 1008 1.2 72
2019-04-01 11:00:00 12.6 4 Oeste 13 Sudeste 0 1007.7 1.3 70
2019-04-01 10:00:00 10 13 Sudeste 19 Sudeste 0 1007.2 1.2 73
2019-04-01 09:00:00 7.6 16 Sudeste 23 Sudeste 0 1006.8 0.9 78
2019-04-01 08:00:00 7.3 15 Sudeste 19 Sudeste 0 1006.4 0.4 78
2019-04-01 07:00:00 8.4 12 Sudeste 22 Sudeste 0 1006 0 76
2019-04-01 06:00:00 7.9 15 Sudeste 21 Sudeste 0 1005.9 -0.5 80
2019-04-01 05:00:00 8.9 9 Sudeste 22 Este 0 1006 -0.4 80
2019-04-01 04:00:00 10.4 12 Este 19 Este 0 1006 -0.4 86
2019-04-01 03:00:00 8.3 9 Sudeste -- -- 0 1006.4 -0.1 88
2019-04-01 02:00:00 8.6 5 Sur -- -- 0 1006.4 0 87
2019-04-01 01:00:00 9.7 9 Sudeste -- -- 0 1006.4 0.6 86
2019-04-01 00:00:00 11.7 6 Este 18 Este 0 1006.5 1.2 81
2019-03-31 23:00:00 12.5 14 Este 27 Este 0 1006.4 1.3 85
2019-03-31 22:00:00 12.8 17 Este 30 Nordeste 0 1005.8 0.7 85
2019-03-31 21:00:00 13 20 Este 33 Este 0 1005.3 0 85
2019-03-31 20:00:00 13.5 18 Nordeste 35 Nordeste 0 1005.1 -0.6 84
2019-03-31 19:00:00 14.4 17 Nordeste 39 Nordeste 0 1005.1 -0.9 80
2019-03-31 18:00:00 14.4 13 Nordeste 28 Nordeste 0 1005.3 -1.3 82
2019-03-31 17:00:00 14.4 17 Nordeste 28 Nordeste 0 1005.7 -1.5 82
2019-03-31 16:00:00 14.5 13 Nordeste 31 Nordeste 0 1006 -1.4 81
2019-03-31 15:00:00 14.6 11 Nordeste -- -- 0 1006.6 -1 80
2019-03-31 14:00:00 14.3 -- -- -- -- 0 1007.2 -0.4 78
2019-03-31 13:00:00 14 -- -- -- -- 0 1007.4 0 78
2019-03-31 12:00:00 13.8 -- -- -- -- 0 1007.6 0.4 79
2019-03-31 11:00:00 12.4 -- -- -- -- 0 1007.6 0.6 80
2019-03-31 10:00:00 10.3 12 Sudeste 17 Sudeste 0 1007.4 0.2 85
2019-03-31 09:00:00 9.5 11 Sudeste 17 Sudeste 0 1007.2 -0.2 88
2019-03-31 08:00:00 9.7 13 Sudeste 16 Sudeste 0 1007 -0.8 88
2019-03-31 07:00:00 10.5 4 Sur 7 Sudoeste 0 1007.2 -1.2 88
2019-03-31 06:00:00 10 6 Sudeste 9 Sudeste 0 1007.4 -1.4 88
2019-03-31 05:00:00 9.8 9 Sudeste 11 Sur 0 1007.8 -1.5 89
2019-03-31 03:00:00 11.8 7 Sudoeste 15 Sudoeste 0 1008.8 -1 89
2019-03-31 01:00:00 11.5 11 Sudoeste 22 Sudoeste 0 1009.3 -0.4 89
2019-03-31 00:00:00 11.8 10 Sudoeste 21 Oeste 0 1009.5 0 89
2019-03-30 23:00:00 12 19 Oeste 27 Oeste 0 1009.8 0.5 89
2019-03-30 22:00:00 11.7 22 Oeste 26 Oeste 0 1009.7 0.6 89
2019-03-30 21:00:00 11.7 15 Sudoeste 18 Oeste 0 1009.5 0.2 88
2019-03-30 20:00:00 12.2 0 Calma 12 Nordeste 0 1009.3 0.1 88
2019-03-30 19:00:00 12.3 8 Este 14 Este 0 1009.1 -0.5 88
2019-03-30 18:00:00 12.2 5 Este 24 Este 0 1009.3 -0.5 89
2019-03-30 17:00:00 11.6 18 Este -- -- 0 1009.2 -1.3 88
2019-03-30 16:00:00 12.2 -- -- -- -- 0 1009.6 -1.1 85
2019-03-30 15:00:00 11.5 -- -- -- -- 0 1009.8 -1.3 86
2019-03-30 14:00:00 11.1 -- -- -- -- 0 1010.5 -0.8 86
2019-03-30 13:00:00 11.5 -- -- -- -- 0 1010.7 -0.4 83
2019-03-30 12:00:00 11.6 -- -- -- -- 0 1011.1 0.2 85
2019-03-30 11:00:00 11.6 -- -- -- -- 0 1011.3 0.8 83
2019-03-30 10:00:00 11.2 3 Norte 9 Nordeste 0 1011.1 0.5 86
2019-03-30 09:00:00 9.5 6 Nordeste 15 Nordeste 0 1010.9 0 88
2019-03-30 08:00:00 7.3 12 Sudeste 24 Sudeste 0 1010.5 -0.5 86
2019-03-30 07:00:00 7.4 9 Sudeste 15 Sudeste 0 1010.6 -0.6 88
2019-03-30 06:00:00 7.2 10 Sudeste 16 Sudeste 0 1010.9 -0.5 89
2019-03-30 05:00:00 7.5 13 Sudeste 15 Sur 0 1011 -0.7 88
2019-03-30 04:00:00 9 10 Sudeste 14 Sur 0 1011.2 -0.8 88
2019-03-30 03:00:00 9.4 9 Sur 13 Sur 0 1011.4 -0.8 87
2019-03-30 02:00:00 10 8 Sur 14 Oeste 0 1011.7 -0.9 86
2019-03-30 01:00:00 11.3 10 Oeste 18 Sudoeste 0 1012 -0.7 85
2019-03-30 00:00:00 11.1 13 Sudoeste 20 Oeste 0 1012.2 -0.5 86
2019-03-29 23:00:00 11.2 13 Sudoeste 19 Oeste 0 1012.6 0.2 85
2019-03-29 22:00:00 11.5 10 Oeste 13 Oeste 0 1012.7 0.3 85
2019-03-29 21:00:00 11.3 4 Sudeste 19 Este 0 1012.7 0.3 85
2019-03-29 20:00:00 12.1 11 Nordeste 30 Nordeste 0 1012.4 -0.3 85
2019-03-29 19:00:00 12.7 17 Nordeste 31 Nordeste 0 1012.4 -0.8 82
2019-03-29 18:00:00 13.2 14 Nordeste 29 Nordeste 0 1012.4 -1.4 80
2019-03-29 17:00:00 13.6 17 Nordeste 32 Nordeste 0 1012.7 -1.7 78
2019-03-29 16:00:00 13.8 18 Nordeste 29 Nordeste 0 1013.2 -1.7 76
2019-03-29 15:00:00 13.6 17 Nordeste 30 Nordeste 0 1013.8 -1.7 76
2019-03-29 14:00:00 13.9 14 Nordeste 30 Nordeste 0 1014.4 -1.6 76
2019-03-29 13:00:00 13.6 15 Nordeste 28 Nordeste 0 1014.9 -1.4 74
2019-03-29 12:00:00 13.7 13 Nordeste 28 Nordeste 0 1015.5 -0.9 71
2019-03-29 11:00:00 13 3 Norte 7 Norte 0 1016 -0.4 68
2019-03-29 10:00:00 11.9 3 Noroeste 14 Sudeste 0 1016.3 -0.2 72
2019-03-29 09:00:00 9.1 11 Sudeste 22 Sudeste 0 1016.4 -0.2 80
2019-03-29 08:00:00 6.9 17 Sudeste 24 Sudeste 0 1016.4 -0.5 84
2019-03-29 07:00:00 6.6 12 Sudeste 17 Sudeste 0 1016.5 -0.8 81
2019-03-29 06:00:00 9.2 9 Este 15 Este 0 1016.6 -1.2 76
2019-03-29 05:00:00 9.4 10 Este 13 Este 0 1016.9 -1.4 77
2019-03-29 04:00:00 9.4 9 Este 15 Este 0 1017.3 -1.5 77
2019-03-29 03:00:00 9.5 11 Este 23 Este 0 1017.8 -1.3 80
2019-03-29 02:00:00 9.7 12 Este 22 Este 0 1018.3 -1.1 80
2019-03-29 01:00:00 9.7 14 Sudeste 25 Nordeste 0 1018.8 -0.7 81
2019-03-29 00:00:00 10.4 14 Este 32 Nordeste 0 1019.1 -0.3 80
2019-03-28 23:00:00 10.9 18 Este 38 Este 0 1019.4 0.3 78
2019-03-28 22:00:00 11.1 26 Este 47 Este 0 1019.5 0.9 77
2019-03-28 21:00:00 11.4 30 Este 51 Este 0 1019.4 1 77
2019-03-28 20:00:00 11.7 31 Nordeste 57 Nordeste 0 1019.1 0.3 75
2019-03-28 19:00:00 12.2 35 Nordeste 61 Nordeste 0 1018.6 -1.1 76
2019-03-28 18:00:00 12.4 35 Nordeste 60 Nordeste 0 1018.4 -1.8 74
2019-03-28 17:00:00 13 31 Nordeste 60 Nordeste 0 1018.8 -2 73
2019-03-28 16:00:00 13.3 33 Nordeste 66 Nordeste 0 1019.7 -1.6 73
2019-03-28 15:00:00 13.1 36 Nordeste 58 Nordeste 0 1020.2 -1.7 71
2019-03-28 14:00:00 13.2 31 Nordeste 63 Nordeste 0 1020.8 -1.5 73
2019-03-28 13:00:00 13.4 21 Nordeste 52 Nordeste 0 1021.3 -1.3 73
2019-03-28 12:00:00 13.1 18 Nordeste 53 Nordeste 0 1021.9 -0.8 71
2019-03-28 11:00:00 12.9 25 Nordeste 48 Nordeste 0 1022.3 -0.3 69
2019-03-28 10:00:00 12.7 17 Nordeste 36 Nordeste 0 1022.6 0.4 66
2019-03-28 09:00:00 11.7 17 Este 31 Este 0 1022.7 0.6 63
2019-03-28 08:00:00 8.3 9 Sudeste 21 Sudeste 0 1022.6 0.6 68
2019-03-28 07:00:00 8 13 Sudeste 21 Sudeste 0 1022.2 0 67
2019-03-28 06:00:00 8.2 11 Sudeste 22 Sudeste 0 1022.1 -0.2 68
2019-03-28 05:00:00 8.1 14 Sudeste 20 Sudeste 0 1022 -0.5 71
2019-03-28 04:00:00 8.8 12 Sudeste 32 Este 0 1022.2 -0.5 70
2019-03-28 03:00:00 9.6 20 Este 32 Sudeste 0 1022.3 -0.4 70
2019-03-28 02:00:00 9.6 17 Este 41 Este 0 1022.5 0.2 70
2019-03-28 01:00:00 10.2 26 Este 43 Este 0 1022.7 0.6 70
2019-03-28 00:00:00 10.2 26 Este 49 Este 0 1022.7 1.2 70
2019-03-27 23:00:00 10.5 28 Nordeste 51 Este 0 1022.3 1.3 73
2019-03-27 22:00:00 10.6 26 Nordeste 50 Este 0 1022.1 2 73
2019-03-27 21:00:00 10.8 31 Nordeste 57 Nordeste 0 1021.5 1.7 74
2019-03-27 20:00:00 11.3 32 Nordeste 63 Nordeste 0 1021 1.2 72
2019-03-27 19:00:00 11.7 37 Nordeste 67 Nordeste 0 1020.1 0.3 70
2019-03-27 18:00:00 12.1 41 Nordeste 68 Nordeste 0 1019.8 -0.3 71
2019-03-27 17:00:00 12.6 39 Nordeste 67 Nordeste 0 1019.8 -0.5 70
2019-03-27 16:00:00 12.8 38 Nordeste 71 Nordeste 0 1019.8 -0.5 69
2019-03-27 15:00:00 12.9 40 Nordeste 69 Nordeste 0 1020.1 -0.2 69
2019-03-27 14:00:00 12.8 41 Nordeste 71 Nordeste 0 1020.3 0 69
2019-03-27 13:00:00 12.9 40 Nordeste 68 Nordeste 0 1020.3 0.2 69
2019-03-27 12:00:00 13.1 34 Nordeste 54 Nordeste 0 1020.3 0.6 68
2019-03-27 11:00:00 12.8 26 Nordeste 51 Nordeste 0 1020.3 0.6 65
2019-03-27 10:00:00 12.2 26 Nordeste 48 Nordeste 0 1020.1 0.8 60
2019-03-27 09:00:00 11.8 13 Este 31 Este 0 1019.7 0.8 60
2019-03-27 08:00:00 8.8 13 Sudeste 23 Sudeste 0 1019.7 0.9 63
2019-03-27 07:00:00 9.8 15 Este 41 Este 0 1019.3 0.7 69
2019-03-27 06:00:00 10.4 18 Este 37 Este 0 1018.9 0.1 70
2019-03-27 05:00:00 10.4 20 Este 45 Este 0 1018.8 0 67
2019-03-27 04:00:00 10.5 26 Este 49 Nordeste 0 1018.6 -0.1 66
2019-03-27 03:00:00 10.6 29 Este 50 Este 0 1018.8 0.5 67
2019-03-27 02:00:00 10.5 36 Este 60 Este 0 1018.8 0.7 62
2019-03-27 01:00:00 10 32 Este 55 Este 0 1018.7 1.2 65
2019-03-27 00:00:00 10.2 32 Este 58 Este 0 1018.3 0.7 69
2019-03-26 23:00:00 10.2 34 Este 66 Este 0 1018.1 1.5 68
2019-03-26 22:00:00 10.3 37 Nordeste 67 Este 0 1017.5 1 70
2019-03-26 21:00:00 10.5 41 Este 64 Este 0 1017.6 2 68
2019-03-26 20:00:00 10.8 38 Nordeste 63 Nordeste 0 1016.6 1.1 71
2019-03-26 19:00:00 11.2 41 Este 72 Este 0 1016.5 1.1 67
2019-03-26 18:00:00 11.5 39 Nordeste 69 Nordeste 0 1015.6 -0.6 65
2019-03-26 17:00:00 11.8 43 Nordeste 84 Nordeste 0 1015.5 -1.3 64
2019-03-26 16:00:00 11.9 53 Nordeste 85 Nordeste 0 1015.4 -1.3 60
2019-03-26 15:00:00 12.1 49 Nordeste 79 Nordeste 0 1016.2 -0.7 61
2019-03-26 14:00:00 12.1 46 Nordeste 85 Nordeste 0 1016.8 -0.8 64
2019-03-26 13:00:00 12.1 48 Nordeste 88 Nordeste 0 1016.7 -1.3 59
2019-03-26 12:00:00 12.2 48 Nordeste 80 Nordeste 0 1016.9 -1.2 59
2019-03-26 11:00:00 12.2 39 Nordeste 77 Este 0 1017.6 -0.4 61
2019-03-26 10:00:00 12.1 40 Este 71 Este 0 1018 0.2 57
2019-03-26 09:00:00 11.7 37 Este 58 Este 0 1018.1 0.3 55
2019-03-26 08:00:00 11.1 31 Este 51 Este 0 1018 -0.1 71
2019-03-26 07:00:00 11 32 Este 52 Este 0 1017.8 -0.7 72
2019-03-26 06:00:00 10.9 28 Este 48 Nordeste 0 1017.8 -1.1 69
2019-03-26 05:00:00 10.8 26 Este 41 Este 0 1018.1 -1.5 66
2019-03-26 04:00:00 10.7 22 Nordeste 39 Nordeste 0 1018.5 -1.2 66
2019-03-26 03:00:00 10.9 16 Nordeste 33 Nordeste 0 1018.9 -1.1 65
2019-03-26 02:00:00 10.1 14 Este 46 Nordeste 0 1019.6 -0.1 69
2019-03-26 01:00:00 10.7 33 Este 57 Este 0 1019.7 0.2 71
2019-03-26 00:00:00 10.8 30 Este 53 Este 0 1020 0.7 73
2019-03-25 23:00:00 10.9 30 Este 55 Este 0 1019.7 1 74
2019-03-25 22:00:00 11.1 26 Nordeste 51 Este 0 1019.5 1.1 74
2019-03-25 21:00:00 11.3 31 Nordeste 61 Nordeste 0 1019.3 1.1 75
2019-03-25 20:00:00 11.5 33 Nordeste 62 Nordeste 0 1018.7 0.4 75
2019-03-25 19:00:00 12 37 Nordeste 63 Nordeste 0 1018.4 -0.5 74
2019-03-25 18:00:00 12.4 37 Nordeste 69 Nordeste 0 1018.2 -0.9 74
2019-03-25 17:00:00 12.9 36 Nordeste 69 Nordeste 0 1018.3 -1.1 73
2019-03-25 16:00:00 13 38 Nordeste 68 Nordeste 0 1018.9 -1 73
2019-03-25 15:00:00 13 40 Nordeste 78 Nordeste 0 1019.1 -1.3 73
2019-03-25 14:00:00 13.3 38 Nordeste 63 Nordeste 0 1019.4 -1.3 74
2019-03-25 13:00:00 13.4 36 Nordeste 62 Nordeste 0 1019.9 -0.6 73
2019-03-25 12:00:00 13.3 32 Nordeste 57 Nordeste 0 1020.4 0.2 73
2019-03-25 11:00:00 13.2 28 Nordeste 50 Nordeste 0 1020.7 0.6 74
2019-03-25 10:00:00 12.5 27 Nordeste 49 Este 0 1020.5 0.8 76
2019-03-25 09:00:00 12.1 23 Este 41 Este 0 1020.2 0.7 79
2019-03-25 08:00:00 11.7 22 Este 39 Este 0 1020.1 0.3 79
2019-03-25 07:00:00 11.6 20 Nordeste 35 Nordeste 0 1019.7 -0.1 79
2019-03-25 06:00:00 11.6 20 Este 39 Este 0 1019.5 -0.3 77
2019-03-25 05:00:00 11.6 24 Este 51 Nordeste 0 1019.8 0 78
2019-03-25 04:00:00 11.6 29 Nordeste 52 Nordeste 0 1019.8 -0.2 77
2019-03-25 03:00:00 11.8 27 Nordeste 55 Nordeste 0 1019.8 -0.3 79
2019-03-25 02:00:00 12.1 25 Este 45 Nordeste 0 1019.8 -0.8 82
2019-03-25 01:00:00 12.1 21 Nordeste 40 Nordeste 0 1020 -0.5 84
2019-03-25 00:00:00 11.9 17 Este 36 Este 0 1020.1 -0.2 85